Tarija, Bolivia
Current Conditions -  °F | °C
As of 5:00 PM on Thursday 27 Nov 2014 (Local Time) from SLTJ Reporting Station
Broken Clouds Broken Clouds  
Wind Chill: 64°   Ceiling: 7000
Heat Index: 64°   Visibility: 6mi
Dew Point: 57°   Wind: 0mph
Humidity: 77%   Direction: NA
Pressure: 30.12"   Gusts: NA
Location:  21.53°S, 64.74°W
Report Text: SLTJ 272100Z 00000KT 9999 FEW008 SCT030 FEW033 CB BKN070 18/14 Q1020
Loading
Personal Weather Stations






























Interactive Weather Map New forecast layout! Learn more

10-Day Weather Forecast

Advertisements
Track Severe Weather on mobile